createdAt,value
2019-03-12T00:00:36.230Z,87.93
2019-03-12T00:03:05.636Z,88.11
2019-03-12T00:05:35.075Z,87.99
2019-03-12T00:08:04.495Z,88.09
2019-03-12T00:10:33.944Z,88.15
2019-03-12T00:13:03.293Z,88.40
2019-03-12T00:15:32.737Z,88.42
2019-03-12T00:18:02.149Z,88.48
2019-03-12T00:20:31.694Z,88.63
2019-03-12T00:23:01.459Z,88.36
2019-03-12T00:25:30.908Z,88.57
2019-03-12T00:28:00.327Z,88.68
2019-03-12T00:30:29.768Z,88.75
2019-03-12T00:32:59.180Z,88.51
2019-03-12T00:35:28.939Z,88.75
2019-03-12T00:37:58.358Z,88.71
2019-03-12T00:40:27.799Z,88.60
2019-03-12T00:42:57.139Z,88.46
2019-03-12T00:45:26.585Z,88.62
2019-03-12T00:47:55.923Z,88.48
2019-03-12T00:50:25.296Z,88.54
2019-03-12T00:52:54.641Z,88.32
2019-03-12T00:55:24.087Z,88.29
2019-03-12T00:57:53.510Z,88.24
2019-03-12T01:00:22.956Z,88.19
2019-03-12T01:02:52.303Z,88.08
2019-03-12T01:05:21.701Z,88.09
2019-03-12T01:07:51.054Z,87.89
2019-03-12T01:10:20.426Z,87.83
2019-03-12T01:12:49.836Z,87.78
2019-03-12T01:15:19.213Z,87.83
2019-03-12T01:17:48.564Z,88.04
2019-03-12T01:20:17.948Z,88.15
2019-03-12T01:22:47.287Z,88.10
2019-03-12T01:25:16.744Z,88.18
2019-03-12T01:27:46.164Z,88.29
2019-03-12T01:30:17.628Z,88.18
2019-03-12T01:32:46.981Z,88.27
2019-03-12T01:35:16.358Z,88.28
2019-03-12T01:37:45.804Z,88.00
2019-03-12T01:40:15.179Z,87.90
2019-03-12T01:42:44.550Z,87.54
2019-03-12T01:45:14.433Z,87.28
2019-03-12T01:47:43.874Z,87.19
2019-03-12T01:50:14.229Z,86.95
2019-03-12T01:52:43.762Z,86.14
2019-03-12T01:55:18.947Z,85.85
2019-03-12T01:57:48.384Z,84.93
2019-03-12T02:00:18.564Z,85.04
2019-03-12T02:02:47.941Z,85.02
2019-03-12T02:05:17.356Z,84.11
2019-03-12T02:07:46.720Z,83.67
2019-03-12T02:10:16.132Z,83.06
2019-03-12T02:12:45.495Z,83.49
2019-03-12T02:15:16.842Z,82.98
2019-03-12T02:17:46.282Z,83.17
2019-03-12T02:20:19.347Z,83.29
2019-03-12T02:22:48.792Z,82.96
2019-03-12T02:25:18.773Z,83.68
2019-03-12T02:27:48.215Z,83.53
2019-03-12T02:30:19.103Z,82.77
2019-03-12T02:32:48.550Z,82.26
2019-03-12T02:35:17.884Z,82.62
2019-03-12T02:37:47.252Z,82.55
2019-03-12T02:40:16.684Z,82.12
2019-03-12T02:42:46.049Z,82.03
2019-03-12T02:45:16.191Z,82.16
2019-03-12T02:47:45.552Z,82.07
2019-03-12T02:50:15.506Z,82.51
2019-03-12T02:52:44.922Z,83.05
2019-03-12T02:55:14.576Z,83.09
2019-03-12T02:57:43.962Z,83.69
2019-03-12T03:00:21.000Z,83.80
2019-03-12T03:02:50.392Z,83.81
2019-03-12T03:05:19.778Z,83.66
2019-03-12T03:08:02.814Z,84.06
2019-03-12T03:10:32.158Z,84.12
2019-03-12T03:13:02.018Z,84.63
2019-03-12T03:15:35.663Z,84.42
2019-03-12T03:18:05.099Z,84.90
2019-03-12T03:20:34.450Z,85.21
2019-03-12T03:23:03.815Z,84.65
2019-03-12T03:25:33.182Z,85.05
2019-03-12T03:28:02.543Z,85.39
2019-03-12T03:30:31.941Z,85.58
2019-03-12T03:33:01.502Z,85.69
2019-03-12T03:35:30.913Z,85.82
2019-03-12T03:38:00.710Z,86.00
2019-03-12T03:40:30.134Z,86.20
2019-03-12T03:42:59.573Z,86.26
2019-03-12T03:45:28.918Z,86.47
2019-03-12T03:47:58.356Z,86.53
2019-03-12T03:50:27.712Z,86.61
2019-03-12T03:52:57.143Z,86.83
2019-03-12T03:55:26.482Z,86.93
2019-03-12T03:57:55.853Z,87.08
2019-03-12T04:00:25.529Z,87.29
2019-03-12T04:02:54.898Z,87.37
2019-03-12T04:05:24.303Z,87.23
2019-03-12T04:07:53.698Z,87.25
2019-03-12T04:10:23.109Z,87.14
2019-03-12T04:12:52.468Z,87.06
2019-03-12T04:15:21.907Z,87.36
2019-03-12T04:17:51.262Z,87.12
2019-03-12T04:20:20.623Z,86.81
2019-03-12T04:22:49.961Z,86.74
2019-03-12T04:25:19.359Z,86.96
2019-03-12T04:27:48.716Z,87.05
2019-03-12T04:30:18.814Z,86.95
2019-03-12T04:32:48.154Z,86.75
2019-03-12T04:35:23.668Z,86.56
2019-03-12T04:37:53.010Z,86.65
2019-03-12T04:40:22.396Z,86.65
2019-03-12T04:42:51.741Z,86.68
2019-03-12T04:45:21.114Z,86.72
2019-03-12T04:47:50.526Z,86.54
2019-03-12T04:50:19.967Z,87.01
2019-03-12T04:52:49.384Z,86.87
2019-03-12T04:55:18.831Z,86.81
2019-03-12T04:57:48.233Z,86.79
2019-03-12T05:00:18.739Z,86.75
2019-03-12T05:02:48.082Z,86.67
2019-03-12T05:05:17.457Z,86.92
2019-03-12T05:07:46.793Z,86.83
2019-03-12T05:10:16.574Z,86.57
2019-03-12T05:12:45.962Z,86.62
2019-03-12T05:15:18.761Z,86.40
2019-03-12T05:17:48.107Z,86.49
2019-03-12T05:20:17.478Z,86.63
2019-03-12T05:22:46.892Z,86.88
2019-03-12T05:25:16.259Z,87.25
2019-03-12T05:27:45.681Z,87.43
2019-03-12T05:30:17.704Z,87.57
2019-03-12T05:32:47.037Z,87.68
2019-03-12T05:35:16.412Z,87.68
2019-03-12T05:37:45.824Z,87.59
2019-03-12T05:40:15.741Z,87.88
2019-03-12T05:42:45.111Z,88.00
2019-03-12T05:45:17.967Z,88.23
2019-03-12T05:47:47.392Z,88.20
2019-03-12T05:50:17.696Z,88.14
2019-03-12T05:52:49.041Z,88.23
2019-03-12T05:55:18.320Z,88.25
2019-03-12T05:57:47.753Z,88.19
2019-03-12T06:00:21.956Z,88.02
2019-03-12T06:02:51.326Z,88.02
2019-03-12T06:05:20.711Z,87.60
2019-03-12T06:07:50.158Z,87.39
2019-03-12T06:10:19.574Z,87.06
2019-03-12T06:12:49.025Z,86.93
2019-03-12T06:15:18.444Z,86.91
2019-03-12T06:17:47.833Z,86.62
2019-03-12T06:20:17.552Z,86.26
2019-03-12T06:22:47.033Z,85.97
2019-03-12T06:25:16.381Z,85.86
2019-03-12T06:27:45.818Z,85.91
2019-03-12T06:30:16.719Z,85.76
2019-03-12T06:33:05.652Z,85.15
2019-03-12T06:35:45.772Z,84.79
2019-03-12T06:38:16.851Z,84.87
2019-03-12T06:40:53.932Z,84.80
2019-03-12T06:43:25.054Z,84.50
2019-03-12T06:46:11.210Z,84.68
2019-03-12T06:48:51.171Z,84.38
2019-03-12T06:51:40.420Z,84.71
2019-03-12T06:54:14.435Z,85.17
2019-03-12T06:57:01.541Z,85.18
2019-03-12T06:59:35.552Z,84.90
2019-03-12T07:02:23.216Z,84.37
2019-03-12T07:04:57.217Z,84.67
2019-03-12T07:07:45.992Z,84.87
2019-03-12T07:10:35.063Z,84.36
2019-03-12T07:13:07.297Z,83.96
2019-03-12T07:15:38.375Z,83.74
2019-03-12T07:18:09.458Z,84.00
2019-03-12T07:20:55.652Z,82.96
2019-03-12T07:23:42.737Z,83.14
2019-03-12T07:26:13.724Z,83.83
2019-03-12T07:28:50.202Z,83.43
2019-03-12T07:31:32.379Z,83.43
2019-03-12T07:34:03.475Z,82.91
2019-03-12T07:36:43.473Z,83.09
2019-03-12T07:39:14.480Z,83.53
2019-03-12T07:41:45.461Z,82.76
2019-03-12T07:44:16.664Z,82.97
2019-03-12T07:46:56.670Z,83.09
2019-03-12T07:49:33.452Z,83.47
2019-03-12T07:52:04.517Z,83.10
2019-03-12T07:54:41.536Z,82.53
2019-03-12T07:57:18.299Z,82.68
2019-03-12T07:59:49.335Z,81.71
2019-03-12T08:02:23.342Z,81.48
2019-03-12T08:04:57.077Z,81.37
2019-03-12T08:07:40.239Z,81.18
2019-03-12T08:10:20.967Z,81.35
2019-03-12T08:13:01.749Z,81.10
2019-03-12T08:15:41.889Z,81.20
2019-03-12T08:18:12.849Z,81.10
2019-03-12T08:20:46.532Z,81.36
2019-03-12T08:23:32.644Z,81.46
2019-03-12T08:26:19.426Z,81.27
2019-03-12T08:29:06.380Z,81.87
2019-03-12T08:31:43.176Z,81.64
2019-03-12T08:34:17.101Z,81.70
2019-03-12T08:36:57.068Z,82.17
2019-03-12T08:39:39.633Z,82.04
2019-03-12T08:42:26.653Z,82.60
2019-03-12T08:45:16.565Z,82.28
2019-03-12T08:47:49.127Z,82.06
2019-03-12T08:50:35.337Z,81.58
2019-03-12T08:53:12.386Z,81.33
2019-03-12T08:55:59.741Z,81.15
2019-03-12T08:58:33.551Z,80.55
2019-03-12T09:01:20.920Z,80.16
2019-03-12T09:03:57.636Z,79.62
2019-03-12T09:06:28.736Z,79.60
2019-03-12T09:09:14.852Z,78.72
2019-03-12T09:11:57.881Z,79.42
2019-03-12T09:14:44.916Z,78.35
2019-03-12T09:17:25.027Z,79.58
2019-03-12T09:19:59.049Z,78.94
2019-03-12T09:22:32.734Z,79.23
2019-03-12T09:25:03.784Z,79.31
2019-03-12T09:27:37.616Z,79.45
2019-03-12T09:30:27.227Z,79.36
2019-03-12T09:33:04.287Z,78.60
2019-03-12T09:35:44.254Z,78.59
2019-03-12T09:38:18.231Z,78.53
2019-03-12T09:41:05.381Z,78.28
2019-03-12T09:43:48.074Z,79.27
2019-03-12T09:46:17.966Z,78.17
2019-03-12T09:48:54.548Z,77.76
2019-03-12T09:51:25.542Z,77.16
2019-03-12T09:53:59.266Z,75.67
2019-03-12T09:56:35.929Z,75.35
2019-03-12T09:59:07.019Z,75.50
2019-03-12T10:01:40.775Z,74.90
2019-03-12T10:04:28.006Z,75.44
2019-03-12T10:07:14.024Z,75.03
2019-03-12T10:09:45.156Z,73.64
2019-03-12T10:12:25.042Z,72.96
2019-03-12T10:14:56.132Z,73.15
2019-03-12T10:17:33.169Z,72.19
2019-03-12T10:20:04.189Z,73.21
2019-03-12T10:22:47.068Z,72.18
2019-03-12T10:25:25.287Z,70.51
2019-03-12T10:27:59.263Z,70.78
2019-03-12T10:30:39.218Z,71.14
2019-03-12T10:33:10.215Z,70.45
2019-03-12T10:35:57.274Z,70.86
2019-03-12T10:39:20.296Z,70.38
2019-03-12T10:41:54.088Z,70.33
2019-03-12T10:44:26.697Z,70.72
2019-03-12T10:46:57.759Z,70.51
2019-03-12T10:49:36.915Z,71.51
2019-03-12T10:51:58.331Z,70.52
2019-03-12T10:54:27.683Z,70.78
2019-03-12T10:56:57.124Z,70.25
2019-03-12T10:59:26.465Z,70.43
2019-03-12T11:01:55.872Z,69.65
2019-03-12T11:04:25.284Z,69.24
2019-03-12T11:06:54.732Z,69.50
2019-03-12T11:09:24.109Z,68.50
2019-03-12T11:11:53.494Z,66.79
2019-03-12T11:14:22.932Z,64.72
2019-03-12T11:16:52.339Z,63.41
2019-03-12T11:19:21.715Z,58.25
2019-03-12T11:21:51.129Z,60.08
2019-03-12T11:24:20.628Z,59.29
2019-03-12T11:26:49.979Z,60.72
2019-03-12T11:29:19.339Z,60.93
2019-03-12T11:31:48.676Z,62.98
2019-03-12T11:34:18.057Z,64.95
2019-03-12T11:36:47.497Z,66.02
2019-03-12T11:39:16.912Z,67.68
2019-03-12T11:41:46.376Z,68.03
2019-03-12T11:44:15.805Z,67.62
2019-03-12T11:46:46.108Z,62.27
2019-03-12T11:49:15.676Z,61.31
2019-03-12T11:51:45.080Z,57.65
2019-03-12T11:54:14.562Z,57.87
2019-03-12T11:56:44.063Z,58.95
2019-03-12T11:59:13.493Z,59.96
2019-03-12T12:01:42.902Z,58.29
2019-03-12T12:04:12.363Z,54.31
2019-03-12T12:06:43.065Z,55.44
2019-03-12T12:09:13.469Z,53.53
2019-03-12T12:11:42.964Z,53.60
2019-03-12T12:14:13.228Z,54.12
2019-03-12T12:16:42.634Z,55.54
2019-03-12T12:19:14.427Z,56.66
2019-03-12T12:21:44.172Z,56.73
2019-03-12T12:24:13.613Z,55.94
2019-03-12T12:26:42.947Z,55.66
2019-03-12T12:29:12.311Z,58.77
2019-03-12T12:31:41.724Z,61.20
2019-03-12T12:34:11.095Z,61.39
2019-03-12T12:36:40.435Z,62.45
2019-03-12T12:39:09.878Z,63.72
2019-03-12T12:41:39.282Z,64.26
2019-03-12T12:44:11.824Z,63.97
2019-03-12T12:46:41.170Z,64.97
2019-03-12T12:49:10.599Z,66.15
2019-03-12T12:51:40.013Z,65.70
2019-03-12T12:54:09.978Z,65.84
2019-03-12T12:56:39.335Z,65.99
2019-03-12T12:59:09.099Z,65.35
2019-03-12T13:01:40.887Z,64.90
2019-03-12T13:04:10.287Z,65.06
2019-03-12T13:06:39.941Z,64.43
2019-03-12T13:09:09.348Z,64.53
2019-03-12T13:11:39.140Z,64.99
2019-03-12T13:14:08.483Z,63.98
2019-03-12T13:16:37.924Z,64.74
2019-03-12T13:19:07.273Z,64.24
2019-03-12T13:21:37.087Z,63.22
2019-03-12T13:24:06.545Z,53.06
2019-03-12T13:26:36.280Z,50.72
2019-03-12T13:29:05.697Z,53.95
2019-03-12T13:31:35.180Z,54.17
2019-03-12T13:34:04.595Z,54.66
2019-03-12T13:36:33.981Z,56.31
2019-03-12T13:39:04.236Z,58.53
2019-03-12T13:41:33.627Z,58.11
2019-03-12T13:44:03.070Z,59.48
2019-03-12T13:46:32.594Z,59.96
2019-03-12T13:49:02.036Z,59.92
2019-03-12T13:51:31.477Z,61.69
2019-03-12T13:54:00.883Z,61.25
2019-03-12T13:56:30.245Z,60.41
2019-03-12T13:58:59.585Z,60.03
2019-03-12T14:01:28.946Z,60.44
2019-03-12T14:04:10.055Z,61.22
2019-03-12T14:06:29.420Z,60.88
2019-03-12T14:08:58.841Z,60.34
2019-03-12T14:11:28.209Z,60.81
2019-03-12T14:13:57.548Z,61.64
2019-03-12T14:16:26.913Z,62.34
2019-03-12T14:18:56.249Z,62.06
2019-03-12T14:21:25.693Z,62.05
2019-03-12T14:24:00.638Z,62.97
2019-03-12T14:26:30.378Z,63.54
2019-03-12T14:28:59.817Z,61.80
2019-03-12T14:31:29.253Z,62.09
2019-03-12T14:33:58.667Z,62.28
2019-03-12T14:36:28.105Z,61.90
2019-03-12T14:38:57.445Z,62.11
2019-03-12T14:41:26.813Z,61.72
2019-03-12T14:43:56.150Z,61.93
2019-03-12T14:46:25.597Z,61.51
2019-03-12T14:48:55.344Z,62.15
2019-03-12T14:51:42.840Z,61.56
2019-03-12T14:54:12.906Z,61.41
2019-03-12T14:56:43.810Z,61.97
2019-03-12T14:59:14.667Z,63.38
2019-03-12T15:01:43.645Z,63.05
2019-03-12T15:04:15.121Z,61.87
2019-03-12T15:06:44.053Z,62.78
2019-03-12T15:09:14.604Z,63.50
2019-03-12T15:11:44.070Z,63.71
2019-03-12T15:14:13.491Z,64.48
2019-03-12T15:16:43.010Z,64.21
2019-03-12T15:19:12.448Z,64.32
2019-03-12T15:21:41.819Z,64.24
2019-03-12T15:24:12.091Z,64.88
2019-03-12T15:26:41.799Z,64.45
2019-03-12T15:29:11.184Z,65.46
2019-03-12T15:31:40.596Z,66.01
2019-03-12T15:34:10.349Z,66.66
2019-03-12T15:36:39.759Z,67.71
2019-03-12T15:39:09.547Z,68.26
2019-03-12T15:41:39.096Z,68.46
2019-03-12T15:44:08.470Z,68.67
2019-03-12T15:46:37.825Z,68.92
2019-03-12T15:49:07.281Z,68.95
2019-03-12T15:51:36.622Z,69.06
2019-03-12T15:54:06.384Z,69.12
2019-03-12T15:56:35.805Z,68.67
2019-03-12T15:59:05.192Z,68.76
2019-03-12T16:01:34.616Z,68.44
2019-03-12T16:04:04.058Z,68.31
2019-03-12T16:06:33.418Z,68.77
2019-03-12T16:09:03.361Z,69.43
2019-03-12T16:11:32.709Z,69.40
2019-03-12T16:14:02.089Z,69.43
2019-03-12T16:16:31.591Z,69.42
2019-03-12T16:19:00.974Z,68.99
2019-03-12T16:21:30.465Z,69.07
2019-03-12T16:23:59.838Z,69.30
2019-03-12T16:26:29.197Z,69.75
2019-03-12T16:28:58.569Z,70.07
2019-03-12T16:31:28.029Z,70.11
2019-03-12T16:33:57.479Z,70.69
2019-03-12T16:36:26.899Z,70.78
2019-03-12T16:38:56.318Z,71.05
2019-03-12T16:41:25.749Z,71.28
2019-03-12T16:43:55.216Z,71.18
2019-03-12T16:46:24.570Z,71.76
2019-03-12T16:48:53.950Z,72.04
2019-03-12T16:51:23.308Z,72.12
2019-03-12T16:53:52.759Z,72.29
2019-03-12T16:56:22.119Z,72.55
2019-03-12T16:58:51.569Z,73.00
2019-03-12T17:01:20.989Z,73.40
2019-03-12T17:03:50.376Z,73.44
2019-03-12T17:06:19.732Z,73.76
2019-03-12T17:08:49.187Z,73.77
2019-03-12T17:11:18.612Z,74.22
2019-03-12T17:13:48.014Z,74.17
2019-03-12T17:16:17.436Z,74.06
2019-03-12T17:18:46.893Z,74.10
2019-03-12T17:21:16.360Z,74.25
2019-03-12T17:23:45.832Z,74.22
2019-03-12T17:26:15.289Z,74.12
2019-03-12T17:28:44.721Z,74.05
2019-03-12T17:31:14.176Z,74.17
2019-03-12T17:33:43.607Z,74.26
2019-03-12T17:36:13.275Z,74.11
2019-03-12T17:38:46.825Z,74.40
2019-03-12T17:41:13.784Z,74.41
2019-03-12T17:43:43.144Z,74.51
2019-03-12T17:46:12.601Z,74.44
2019-03-12T17:48:42.014Z,74.51
2019-03-12T17:51:11.462Z,74.51
2019-03-12T17:53:40.814Z,74.66
2019-03-12T17:56:10.267Z,74.54
2019-03-12T17:58:39.617Z,74.40
2019-03-12T18:01:09.498Z,74.46
2019-03-12T18:03:38.974Z,74.36
2019-03-12T18:06:08.360Z,74.30
2019-03-12T18:08:37.793Z,74.40
2019-03-12T18:11:07.534Z,74.42
2019-03-12T18:13:36.880Z,74.26
2019-03-12T18:16:06.449Z,74.46
2019-03-12T18:18:35.794Z,74.54
2019-03-12T18:21:05.198Z,74.29
2019-03-12T18:23:34.562Z,74.39
2019-03-12T18:26:05.855Z,74.36
2019-03-12T18:28:35.209Z,74.24
2019-03-12T18:31:05.063Z,74.64
2019-03-12T18:33:34.434Z,74.39
2019-03-12T18:36:03.817Z,74.56
2019-03-12T18:38:33.260Z,74.34
2019-03-12T18:41:02.638Z,74.23
2019-03-12T18:43:32.062Z,74.54
2019-03-12T18:46:01.518Z,74.59
2019-03-12T18:48:30.940Z,74.67
2019-03-12T18:51:00.391Z,74.97
2019-03-12T18:53:29.747Z,75.07
2019-03-12T18:56:01.444Z,74.78
2019-03-12T18:58:30.788Z,74.56
2019-03-12T19:01:01.511Z,74.81
2019-03-12T19:03:30.933Z,74.64
2019-03-12T19:06:00.413Z,74.70
2019-03-12T19:08:29.822Z,74.57
2019-03-12T19:10:59.210Z,74.28
2019-03-12T19:13:28.612Z,73.87
2019-03-12T19:15:57.968Z,73.90
2019-03-12T19:18:27.372Z,73.04
2019-03-12T19:20:56.717Z,73.04
2019-03-12T19:23:26.176Z,72.92
2019-03-12T19:25:55.663Z,72.49
2019-03-12T19:28:25.045Z,72.35
2019-03-12T19:30:56.110Z,72.15
2019-03-12T19:33:27.185Z,71.44
2019-03-12T19:35:56.542Z,70.81
2019-03-12T19:38:25.994Z,70.78
2019-03-12T19:40:57.162Z,69.96
2019-03-12T19:43:26.547Z,69.79
2019-03-12T19:45:55.904Z,69.04
2019-03-12T19:48:25.344Z,69.80
2019-03-12T19:50:54.765Z,68.92
2019-03-12T19:53:24.209Z,68.37
2019-03-12T19:55:56.729Z,68.86
2019-03-12T19:58:28.459Z,68.44
2019-03-12T20:00:57.452Z,67.45
2019-03-12T20:03:27.001Z,67.74
2019-03-12T20:05:56.411Z,67.49
2019-03-12T20:08:25.851Z,67.44
2019-03-12T20:11:07.629Z,67.42
2019-03-12T20:14:02.428Z,68.12
2019-03-12T20:17:08.996Z,67.53
2019-03-12T20:19:46.785Z,67.29
2019-03-12T20:22:31.412Z,67.51
2019-03-12T20:25:30.488Z,67.60
2019-03-12T20:28:19.408Z,67.17
2019-03-12T20:31:08.460Z,67.81
2019-03-12T20:33:57.390Z,67.92
2019-03-12T20:36:47.951Z,67.62
2019-03-12T20:39:25.792Z,67.83
2019-03-12T20:42:17.840Z,68.29
2019-03-12T20:45:07.133Z,68.20
2019-03-12T20:47:56.050Z,68.67
2019-03-12T20:50:43.546Z,68.55
2019-03-12T20:53:43.015Z,68.85
2019-03-12T20:56:24.618Z,69.10
2019-03-12T20:59:30.041Z,69.86
2019-03-12T21:02:28.033Z,69.42
2019-03-12T21:05:23.162Z,68.96
2019-03-12T21:08:21.020Z,69.28
2019-03-12T21:11:11.336Z,69.06
2019-03-12T21:14:09.137Z,68.66
2019-03-12T21:16:56.557Z,69.50
2019-03-12T21:19:44.173Z,68.92
2019-03-12T21:22:22.661Z,69.02
2019-03-12T21:24:58.028Z,68.95
2019-03-12T21:27:33.501Z,68.82
2019-03-12T21:30:01.986Z,68.69
2019-03-12T21:32:31.406Z,68.76
2019-03-12T21:35:00.845Z,68.62
2019-03-12T21:37:30.268Z,68.87
2019-03-12T21:39:59.722Z,69.27
2019-03-12T21:42:29.077Z,69.15
2019-03-12T21:44:58.532Z,68.55
2019-03-12T21:47:27.953Z,68.82
2019-03-12T21:49:57.512Z,68.92
2019-03-12T21:52:26.937Z,68.48
2019-03-12T21:54:56.303Z,68.73
2019-03-12T21:57:25.722Z,68.67
2019-03-12T21:59:55.170Z,68.20
2019-03-12T22:02:24.599Z,68.34
2019-03-12T22:04:54.045Z,68.61
2019-03-12T22:07:23.392Z,68.50
2019-03-12T22:09:52.916Z,68.32
2019-03-12T22:12:22.341Z,68.24
2019-03-12T22:14:51.721Z,68.24
2019-03-12T22:17:21.069Z,68.67
2019-03-12T22:19:50.450Z,68.40
2019-03-12T22:22:24.150Z,68.30
2019-03-12T22:24:53.540Z,68.55
2019-03-12T22:27:22.985Z,68.75
2019-03-12T22:29:52.374Z,68.23
2019-03-12T22:32:21.788Z,68.78
2019-03-12T22:34:51.170Z,68.33
2019-03-12T22:37:20.506Z,67.96
2019-03-12T22:39:49.896Z,67.89
2019-03-12T22:42:19.313Z,68.17
2019-03-12T22:44:48.689Z,67.54
2019-03-12T22:47:18.068Z,67.72
2019-03-12T22:49:47.434Z,67.66
2019-03-12T22:52:16.809Z,68.01
2019-03-12T22:54:46.148Z,67.34
2019-03-12T22:57:15.598Z,66.98
2019-03-12T22:59:45.003Z,66.96
2019-03-12T23:02:14.449Z,67.49
2019-03-12T23:04:43.922Z,67.18
2019-03-12T23:07:13.381Z,67.23
2019-03-12T23:09:42.841Z,67.19
2019-03-12T23:12:12.278Z,66.88
2019-03-12T23:14:42.155Z,67.16
2019-03-12T23:17:11.576Z,67.34
2019-03-12T23:19:40.979Z,66.96
2019-03-12T23:22:10.409Z,66.80
2019-03-12T23:24:39.810Z,66.81
2019-03-12T23:27:10.467Z,66.85
2019-03-12T23:29:39.855Z,66.93
2019-03-12T23:32:09.630Z,67.51
2019-03-12T23:34:39.120Z,66.89
2019-03-12T23:37:08.543Z,66.89
2019-03-12T23:39:38.037Z,67.05
2019-03-12T23:42:07.531Z,66.81
2019-03-12T23:44:36.998Z,67.37
2019-03-12T23:47:06.593Z,66.99
2019-03-12T23:49:36.068Z,66.95
2019-03-12T23:52:05.567Z,67.14
2019-03-12T23:54:35.096Z,66.93
2019-03-12T23:57:04.607Z,67.48
2019-03-12T23:59:34.083Z,67.08
